createdAt,value
2018-11-23T00:00:26.477Z,18.90
2018-11-23T00:01:26.508Z,18.90
2018-11-23T00:02:26.595Z,18.86
2018-11-23T00:03:26.569Z,18.86
2018-11-23T00:04:26.904Z,18.86
2018-11-23T00:05:26.683Z,18.86
2018-11-23T00:06:26.712Z,18.84
2018-11-23T00:07:26.689Z,18.82
2018-11-23T00:08:26.726Z,18.87
2018-11-23T00:09:26.806Z,18.86
2018-11-23T00:10:26.783Z,18.78
2018-11-23T00:11:27.224Z,18.86
2018-11-23T00:12:26.852Z,18.78
2018-11-23T00:13:26.876Z,18.86
2018-11-23T00:14:26.907Z,18.83
2018-11-23T00:15:26.956Z,18.76
2018-11-23T00:16:27.020Z,18.78
2018-11-23T00:17:27.004Z,18.87
2018-11-23T00:18:27.380Z,18.91
2018-11-23T00:19:27.072Z,18.79
2018-11-23T00:20:27.161Z,18.89
2018-11-23T00:21:27.174Z,18.84
2018-11-23T00:22:27.204Z,18.84
2018-11-23T00:23:27.241Z,18.84
2018-11-23T00:24:27.267Z,18.76
2018-11-23T00:25:27.601Z,18.82
2018-11-23T00:26:27.331Z,18.83
2018-11-23T00:27:27.362Z,18.87
2018-11-23T00:28:27.397Z,18.83
2018-11-23T00:29:27.431Z,18.87
2018-11-23T00:30:27.401Z,18.83
2018-11-23T00:31:27.430Z,18.75
2018-11-23T00:32:27.764Z,18.84
2018-11-23T00:33:27.493Z,18.86
2018-11-23T00:34:27.575Z,18.79
2018-11-23T00:35:27.555Z,18.86
2018-11-23T00:36:27.640Z,18.83
2018-11-23T00:37:27.624Z,18.72
2018-11-23T00:38:27.699Z,18.76
2018-11-23T00:39:28.026Z,18.79
2018-11-23T00:40:27.714Z,18.86
2018-11-23T00:41:27.809Z,18.84
2018-11-23T00:42:27.770Z,18.82
2018-11-23T00:43:27.858Z,18.82
2018-11-23T00:44:27.881Z,18.84
2018-11-23T00:45:27.882Z,18.83
2018-11-23T00:46:28.251Z,18.78
2018-11-23T00:47:27.924Z,18.78
2018-11-23T00:48:28.008Z,18.75
2018-11-23T00:49:27.995Z,18.89
2018-11-23T00:50:28.068Z,18.75
2018-11-23T00:51:28.048Z,18.76
2018-11-23T00:52:28.378Z,18.79
2018-11-23T00:53:28.164Z,18.78
2018-11-23T00:54:28.193Z,18.78
2018-11-23T00:55:28.182Z,18.83
2018-11-23T00:56:28.291Z,18.76
2018-11-23T00:57:28.233Z,18.86
2018-11-23T00:58:28.563Z,18.75
2018-11-23T00:59:28.346Z,18.79
2018-11-23T01:00:28.374Z,18.76
2018-11-23T01:01:28.361Z,18.75
2018-11-23T01:02:28.443Z,18.82
2018-11-23T01:03:28.426Z,18.83
2018-11-23T01:04:28.797Z,18.86
2018-11-23T01:05:28.479Z,18.79
2018-11-23T01:06:28.561Z,18.82
2018-11-23T01:07:28.540Z,18.82
2018-11-23T01:08:28.575Z,18.75
2018-11-23T01:09:28.654Z,18.78
2018-11-23T01:10:28.632Z,18.76
2018-11-23T01:11:29.018Z,18.76
2018-11-23T01:12:28.696Z,18.83
2018-11-23T01:13:28.773Z,18.79
2018-11-23T01:14:28.809Z,18.79
2018-11-23T01:15:28.786Z,18.82
2018-11-23T01:16:28.819Z,18.79
2018-11-23T01:17:28.847Z,18.78
2018-11-23T01:18:28.882Z,18.82
2018-11-23T01:19:28.966Z,18.78
2018-11-23T01:20:29.001Z,18.83
2018-11-23T01:21:28.973Z,18.84
2018-11-23T01:22:29.002Z,18.76
2018-11-23T01:23:29.032Z,18.87
2018-11-23T01:24:29.364Z,18.79
2018-11-23T01:25:29.144Z,18.79
2018-11-23T01:26:29.174Z,18.79
2018-11-23T01:27:29.159Z,18.75
2018-11-23T01:28:29.238Z,18.83
2018-11-23T01:29:29.229Z,18.83
2018-11-23T01:30:29.298Z,18.82
2018-11-23T01:31:29.581Z,18.82
2018-11-23T01:32:29.309Z,18.76
2018-11-23T01:33:29.397Z,18.76
2018-11-23T01:34:29.374Z,18.78
2018-11-23T01:35:29.408Z,18.78
2018-11-23T01:36:29.486Z,18.83
2018-11-23T01:37:29.518Z,18.79
2018-11-23T01:38:29.794Z,18.78
2018-11-23T01:39:29.525Z,18.78
2018-11-23T01:40:29.612Z,18.79
2018-11-23T01:41:29.594Z,18.78
2018-11-23T01:42:29.671Z,18.82
2018-11-23T01:43:29.649Z,18.84
2018-11-23T01:44:29.786Z,18.82
2018-11-23T01:45:30.064Z,18.76
2018-11-23T01:46:29.792Z,18.82
2018-11-23T01:47:29.825Z,18.78
2018-11-23T01:48:29.810Z,18.76
2018-11-23T01:49:29.885Z,18.75
2018-11-23T01:50:29.864Z,18.76
2018-11-23T01:51:29.895Z,18.74
2018-11-23T01:52:30.230Z,18.76
2018-11-23T01:53:30.109Z,18.75
2018-11-23T01:54:29.986Z,18.72
2018-11-23T01:55:30.022Z,18.74
2018-11-23T01:56:30.118Z,18.69
2018-11-23T01:57:30.084Z,18.76
2018-11-23T01:58:30.118Z,18.76
2018-11-23T01:59:30.442Z,18.74
2018-11-23T02:00:30.172Z,18.76
2018-11-23T02:01:30.259Z,18.74
2018-11-23T02:02:30.303Z,18.75
2018-11-23T02:03:30.263Z,18.79
2018-11-23T02:04:30.348Z,18.74
2018-11-23T02:05:30.327Z,18.82
2018-11-23T02:06:30.714Z,18.69
2018-11-23T02:07:30.387Z,18.78
2018-11-23T02:08:30.521Z,18.72
2018-11-23T02:09:30.460Z,18.68
2018-11-23T02:10:30.528Z,18.71
2018-11-23T02:11:30.515Z,18.75
2018-11-23T02:12:30.841Z,18.69
2018-11-23T02:13:30.624Z,18.74
2018-11-23T02:14:30.603Z,18.69
2018-11-23T02:15:30.736Z,18.72
2018-11-23T02:16:30.671Z,18.74
2018-11-23T02:17:30.747Z,18.60
2018-11-23T02:18:31.078Z,18.71
2018-11-23T02:19:30.756Z,18.74
2018-11-23T02:20:30.853Z,18.72
2018-11-23T02:21:30.875Z,18.72
2018-11-23T02:22:30.854Z,18.66
2018-11-23T02:23:30.880Z,18.69
2018-11-23T02:25:31.294Z,18.71
2018-11-23T02:26:31.035Z,18.62
2018-11-23T02:27:31.077Z,18.69
2018-11-23T02:28:31.043Z,18.75
2018-11-23T02:29:31.065Z,18.71
2018-11-23T02:30:31.109Z,18.69
2018-11-23T02:31:31.428Z,18.59
2018-11-23T02:32:31.252Z,18.68
2018-11-23T02:33:31.201Z,18.65
2018-11-23T02:34:31.280Z,18.65
2018-11-23T02:35:31.266Z,18.68
2018-11-23T02:36:31.330Z,18.65
2018-11-23T02:37:31.311Z,18.69
2018-11-23T02:38:31.697Z,18.64
2018-11-23T02:39:31.375Z,18.64
2018-11-23T02:40:31.511Z,18.64
2018-11-23T02:41:31.485Z,18.65
2018-11-23T02:42:31.525Z,18.68
2018-11-23T02:43:31.554Z,18.74
2018-11-23T02:44:31.584Z,18.64
2018-11-23T02:45:31.858Z,18.75
2018-11-23T02:46:31.586Z,18.69
2018-11-23T02:47:31.678Z,18.71
2018-11-23T02:48:31.702Z,18.60
2018-11-23T02:49:31.831Z,18.64
2018-11-23T02:50:31.759Z,18.65
2018-11-23T02:51:31.790Z,18.68
2018-11-23T02:52:32.075Z,18.74
2018-11-23T02:53:31.801Z,18.68
2018-11-23T02:54:31.886Z,18.64
2018-11-23T02:55:31.918Z,18.71
2018-11-23T02:56:31.945Z,18.57
2018-11-23T02:57:31.928Z,18.72
2018-11-23T02:58:31.956Z,18.64
2018-11-23T02:59:32.336Z,18.59
2018-11-23T03:00:32.017Z,18.69
2018-11-23T03:01:32.101Z,18.68
2018-11-23T03:02:32.134Z,18.71
2018-11-23T03:03:32.160Z,18.66
2018-11-23T03:04:32.247Z,18.66
2018-11-23T03:05:32.176Z,18.64
2018-11-23T03:06:32.506Z,18.68
2018-11-23T03:07:32.300Z,18.64
2018-11-23T03:08:32.321Z,18.65
2018-11-23T03:09:32.318Z,18.69
2018-11-23T03:10:32.387Z,18.68
2018-11-23T03:11:32.359Z,18.64
2018-11-23T03:12:32.446Z,18.69
2018-11-23T03:13:32.468Z,18.69
2018-11-23T03:14:32.499Z,18.66
2018-11-23T03:15:32.479Z,18.65
2018-11-23T03:16:32.562Z,18.72
2018-11-23T03:17:32.548Z,18.72
2018-11-23T03:18:32.620Z,18.66
2018-11-23T03:19:32.956Z,18.71
2018-11-23T03:20:32.637Z,18.68
2018-11-23T03:21:32.663Z,18.64
2018-11-23T03:22:32.699Z,18.68
2018-11-23T03:23:32.779Z,18.69
2018-11-23T03:24:32.814Z,18.65
2018-11-23T03:25:32.791Z,18.66
2018-11-23T03:26:33.166Z,18.62
2018-11-23T03:27:32.898Z,18.72
2018-11-23T03:28:32.940Z,18.65
2018-11-23T03:29:32.962Z,18.65
2018-11-23T03:30:32.989Z,18.64
2018-11-23T03:31:32.978Z,18.62
2018-11-23T03:32:33.349Z,18.64
2018-11-23T03:33:33.081Z,18.66
2018-11-23T03:34:33.061Z,18.59
2018-11-23T03:35:33.144Z,18.65
2018-11-23T03:36:33.273Z,18.69
2018-11-23T03:37:33.219Z,18.72
2018-11-23T03:38:33.483Z,18.64
2018-11-23T03:39:34.219Z,18.72
2018-11-23T03:41:33.330Z,18.62
2018-11-23T03:42:33.354Z,18.68
2018-11-23T03:43:33.389Z,18.71
2018-11-23T03:44:33.719Z,18.57
2018-11-23T03:46:33.532Z,18.71
2018-11-23T03:47:33.460Z,18.68
2018-11-23T03:49:33.524Z,18.69
2018-11-23T03:50:33.604Z,18.65
2018-11-23T03:51:33.941Z,18.62
2018-11-23T03:52:33.676Z,18.68
2018-11-23T03:53:33.649Z,18.66
2018-11-23T03:54:33.693Z,18.68
2018-11-23T03:55:33.709Z,18.64
2018-11-23T03:56:33.788Z,18.69
2018-11-23T03:57:33.823Z,18.66
2018-11-23T03:58:34.162Z,18.66
2018-11-23T03:59:33.889Z,18.68
2018-11-23T04:00:33.910Z,18.65
2018-11-23T04:02:37.432Z,18.65
2018-11-23T04:03:37.526Z,18.64
2018-11-23T04:04:37.544Z,18.71
2018-11-23T04:05:37.874Z,18.59
2018-11-23T04:06:37.604Z,18.69
2018-11-23T04:07:37.581Z,18.65
2018-11-23T04:08:37.681Z,18.64
2018-11-23T04:09:37.642Z,18.68
2018-11-23T04:10:37.723Z,18.62
2018-11-23T04:11:37.705Z,18.64
2018-11-23T04:12:38.040Z,18.66
2018-11-23T04:13:37.821Z,18.65
2018-11-23T04:14:37.799Z,18.68
2018-11-23T04:15:37.826Z,18.68
2018-11-23T04:16:37.865Z,18.66
2018-11-23T04:17:37.939Z,18.65
2018-11-23T04:18:38.224Z,18.65
2018-11-23T04:19:38.002Z,18.68
2018-11-23T04:20:38.033Z,18.68
2018-11-23T04:21:38.017Z,18.64
2018-11-23T04:22:38.051Z,18.66
2018-11-23T04:23:38.078Z,18.71
2018-11-23T04:24:38.403Z,18.65
2018-11-23T04:25:38.183Z,18.68
2018-11-23T04:26:38.167Z,18.59
2018-11-23T04:27:38.245Z,18.57
2018-11-23T04:28:38.233Z,18.66
2018-11-23T04:29:38.356Z,18.66
2018-11-23T04:30:38.594Z,18.64
2018-11-23T04:31:38.367Z,18.65
2018-11-23T04:32:38.397Z,18.71
2018-11-23T04:33:38.429Z,18.64
2018-11-23T04:34:38.463Z,18.57
2018-11-23T04:37:38.502Z,18.59
2018-11-23T04:38:38.834Z,18.56
2018-11-23T04:39:38.625Z,18.65
2018-11-23T04:40:38.593Z,18.62
2018-11-23T04:41:38.679Z,18.56
2018-11-23T04:44:38.774Z,18.59
2018-11-23T04:45:39.099Z,18.56
2018-11-23T04:46:38.827Z,18.56
2018-11-23T04:47:38.807Z,18.56
2018-11-23T04:48:38.842Z,18.59
2018-11-23T04:49:38.919Z,18.66
2018-11-23T04:50:38.904Z,18.62
2018-11-23T04:53:39.043Z,18.59
2018-11-23T04:54:39.341Z,18.59
2018-11-23T04:56:39.164Z,18.64
2018-11-23T04:58:39.196Z,18.66
2018-11-23T04:59:39.225Z,18.54
2018-11-23T05:02:39.320Z,18.68
2018-11-23T05:04:39.333Z,18.69
2018-11-23T05:05:39.362Z,18.60
2018-11-23T05:06:39.741Z,18.64
2018-11-23T05:08:39.454Z,18.60
2018-11-23T05:09:39.538Z,18.62
2018-11-23T05:11:39.595Z,18.68
2018-11-23T05:12:39.575Z,18.60
2018-11-23T05:13:39.684Z,18.60
2018-11-23T05:14:39.678Z,18.64
2018-11-23T05:15:39.670Z,18.60
2018-11-23T05:16:39.800Z,18.66
2018-11-23T05:17:39.737Z,18.66
2018-11-23T05:18:39.872Z,18.59
2018-11-23T05:23:40.215Z,18.62
2018-11-23T05:24:39.946Z,18.66
2018-11-23T05:25:40.028Z,18.64
2018-11-23T05:26:40.057Z,18.62
2018-11-23T05:28:40.121Z,18.60
2018-11-23T05:29:40.396Z,18.68
2018-11-23T05:30:40.142Z,18.66
2018-11-23T05:31:40.218Z,18.65
2018-11-23T05:32:40.189Z,18.56
2018-11-23T05:33:40.271Z,18.62
2018-11-23T05:34:40.283Z,18.62
2018-11-23T05:35:40.582Z,18.68
2018-11-23T05:36:40.311Z,18.62
2018-11-23T05:37:40.343Z,18.68
2018-11-23T05:39:40.404Z,18.57
2018-11-23T05:40:40.463Z,18.64
2018-11-23T05:41:40.474Z,18.68
2018-11-23T05:42:40.849Z,18.60
2018-11-23T05:43:40.576Z,18.66
2018-11-23T05:44:40.559Z,18.60
2018-11-23T05:45:40.643Z,18.66
2018-11-23T05:46:40.621Z,18.69
2018-11-23T05:47:40.695Z,18.69
2018-11-23T05:48:40.687Z,18.62
2018-11-23T05:50:41.101Z,18.64
2018-11-23T05:51:40.771Z,18.57
2018-11-23T05:52:40.856Z,18.68
2018-11-23T05:53:40.889Z,18.68
2018-11-23T05:54:40.865Z,18.68
2018-11-23T05:55:40.894Z,18.60
2018-11-23T05:56:41.081Z,18.64
2018-11-23T05:57:41.330Z,18.68
2018-11-23T05:58:41.039Z,18.68
2018-11-23T06:00:41.098Z,18.69
2018-11-23T06:01:41.129Z,18.68
2018-11-23T06:02:41.161Z,18.59
2018-11-23T06:03:41.139Z,18.60
2018-11-23T06:05:41.511Z,18.71
2018-11-23T06:06:42.516Z,18.71
2018-11-23T06:07:41.324Z,18.68
2018-11-23T06:08:41.297Z,18.68
2018-11-23T06:09:41.376Z,18.57
2018-11-23T06:11:41.394Z,18.56
2018-11-23T06:12:41.720Z,18.60
2018-11-23T06:13:41.461Z,18.57
2018-11-23T06:14:41.526Z,18.65
2018-11-23T06:15:44.640Z,18.68
2018-11-23T06:17:41.584Z,18.60
2018-11-23T06:18:41.652Z,18.60
2018-11-23T06:19:41.938Z,18.56
2018-11-23T06:20:41.670Z,18.62
2018-11-23T06:21:41.703Z,18.66
2018-11-23T06:22:41.729Z,18.56
2018-11-23T06:23:41.810Z,18.60
2018-11-23T06:24:41.803Z,18.65
2018-11-23T06:25:41.870Z,18.56
2018-11-23T06:27:42.190Z,18.59
2018-11-23T06:29:42.093Z,18.62
2018-11-23T06:30:42.020Z,18.56
2018-11-23T06:31:42.014Z,18.56
2018-11-23T06:32:42.030Z,18.57
2018-11-23T06:34:42.392Z,18.56
2018-11-23T06:35:42.122Z,18.59
2018-11-23T06:36:42.153Z,18.59
2018-11-23T06:37:42.189Z,18.66
2018-11-23T06:38:42.264Z,18.59
2018-11-23T06:39:42.269Z,18.65
2018-11-23T06:40:42.280Z,18.62
2018-11-23T06:41:42.608Z,18.57
2018-11-23T06:42:42.387Z,18.60
2018-11-23T06:43:42.418Z,18.66
2018-11-23T06:44:42.406Z,18.64
2018-11-23T06:45:42.429Z,18.57
2018-11-23T06:46:42.516Z,18.56
2018-11-23T06:47:42.541Z,18.57
2018-11-23T06:48:42.822Z,18.64
2018-11-23T06:50:42.585Z,18.60
2018-11-23T06:51:42.669Z,18.57
2018-11-23T06:52:42.642Z,18.54
2018-11-23T06:53:42.724Z,18.56
2018-11-23T06:54:42.705Z,18.54
2018-11-23T06:55:43.036Z,18.59
2018-11-23T06:56:42.771Z,18.54
2018-11-23T06:57:42.846Z,18.59
2018-11-23T06:58:42.878Z,18.59
2018-11-23T06:59:42.863Z,18.62
2018-11-23T07:00:42.939Z,18.62
2018-11-23T07:01:42.969Z,18.60
2018-11-23T07:02:43.002Z,18.60
2018-11-23T07:03:42.987Z,18.60
2018-11-23T07:04:43.014Z,18.62
2018-11-23T07:05:43.153Z,18.60
2018-11-23T07:06:43.078Z,18.57
2018-11-23T07:07:43.183Z,18.57
2018-11-23T07:08:43.433Z,18.59
2018-11-23T07:09:43.168Z,18.65
2018-11-23T07:10:43.244Z,18.64
2018-11-23T07:11:43.230Z,18.62
2018-11-23T07:12:43.307Z,18.66
2018-11-23T07:14:43.373Z,18.64
2018-11-23T07:15:43.650Z,18.56
2018-11-23T07:16:43.413Z,18.64
2018-11-23T07:17:43.414Z,18.65
2018-11-23T07:18:43.497Z,18.64
2018-11-23T07:19:43.476Z,18.68
2018-11-23T07:21:43.582Z,18.68
2018-11-23T07:22:43.873Z,18.66
2018-11-23T07:23:43.595Z,18.69
2018-11-23T07:24:43.638Z,18.57
2018-11-23T07:25:43.708Z,18.57
2018-11-23T07:26:43.696Z,18.66
2018-11-23T07:27:43.808Z,18.64
2018-11-23T07:28:43.798Z,18.64
2018-11-23T07:29:44.080Z,18.62
2018-11-23T07:30:43.812Z,18.65
2018-11-23T07:31:43.894Z,18.60
2018-11-23T07:32:43.878Z,18.69
2018-11-23T07:33:43.953Z,18.65
2018-11-23T07:34:43.936Z,18.60
2018-11-23T07:35:44.014Z,18.60
2018-11-23T07:36:43.993Z,18.62
2018-11-23T07:37:44.380Z,18.72
2018-11-23T07:38:44.117Z,18.64
2018-11-23T07:39:44.091Z,18.68
2018-11-23T07:40:44.171Z,18.69
2018-11-23T07:41:44.205Z,18.69
2018-11-23T07:42:44.531Z,18.66
2018-11-23T07:44:44.241Z,18.69
2018-11-23T07:45:44.276Z,18.59
2018-11-23T07:46:44.300Z,18.66
2018-11-23T07:47:44.380Z,18.66
2018-11-23T07:48:44.671Z,18.69
2018-11-23T07:49:44.453Z,18.68
2018-11-23T07:50:44.437Z,18.74
2018-11-23T07:51:44.506Z,18.60
2018-11-23T07:52:44.541Z,18.74
2018-11-23T07:53:44.582Z,18.76
2018-11-23T07:54:44.851Z,18.69
2018-11-23T07:55:44.577Z,18.71
2018-11-23T07:57:44.689Z,18.68
2018-11-23T07:58:44.679Z,18.74
2018-11-23T07:59:44.944Z,18.71
2018-11-23T08:01:44.771Z,18.71
2018-11-23T08:02:44.851Z,18.68
2018-11-23T08:03:44.825Z,18.75
2018-11-23T08:04:44.908Z,18.71
2018-11-23T08:05:44.886Z,18.79
2018-11-23T08:06:45.030Z,18.76
2018-11-23T08:07:45.309Z,18.78
2018-11-23T08:08:45.130Z,18.78
2018-11-23T08:09:45.194Z,18.75
2018-11-23T08:10:45.161Z,18.76
2018-11-23T08:11:45.124Z,18.78
2018-11-23T08:12:45.322Z,18.79
2018-11-23T08:14:45.216Z,18.75
2018-11-23T08:15:45.218Z,18.78
2018-11-23T08:16:45.223Z,18.82
2018-11-23T08:17:45.486Z,18.79
2018-11-23T08:18:45.338Z,18.82
2018-11-23T08:19:47.372Z,18.79
2018-11-23T08:20:45.347Z,18.78
2018-11-23T08:21:45.691Z,18.84
2018-11-23T08:22:45.418Z,18.79
2018-11-23T08:23:45.444Z,18.74
2018-11-23T08:24:45.473Z,18.79
2018-11-23T08:25:45.554Z,18.86
2018-11-23T08:26:45.533Z,18.83
2018-11-23T08:27:45.618Z,18.82
2018-11-23T08:28:45.892Z,18.82
2018-11-23T08:29:45.672Z,18.83
2018-11-23T08:30:45.753Z,18.79
2018-11-23T08:31:45.735Z,18.76
2018-11-23T08:32:45.722Z,18.83
2018-11-23T08:34:45.779Z,18.76
2018-11-23T08:35:46.117Z,18.82
2018-11-23T08:36:45.853Z,18.76
2018-11-23T08:37:45.928Z,18.76
2018-11-23T08:38:45.956Z,18.87
2018-11-23T08:39:45.984Z,18.82
2018-11-23T08:40:46.016Z,18.87
2018-11-23T08:41:46.047Z,18.86
2018-11-23T08:42:46.331Z,18.86
2018-11-23T08:43:46.109Z,18.86
2018-11-23T08:44:46.153Z,18.78
2018-11-23T08:45:46.170Z,18.75
2018-11-23T08:46:46.150Z,18.84
2018-11-23T08:47:46.236Z,18.86
2018-11-23T08:49:46.292Z,18.84
2018-11-23T08:50:46.278Z,18.86
2018-11-23T08:51:46.307Z,18.87
2018-11-23T08:52:46.332Z,18.86
2018-11-23T08:54:46.446Z,18.91
2018-11-23T08:55:46.779Z,18.86
2018-11-23T08:56:46.806Z,18.83
2018-11-23T08:57:46.502Z,18.90
2018-11-23T08:58:46.520Z,18.91
2018-11-23T08:59:46.557Z,18.86
2018-11-23T09:00:46.585Z,18.93
2018-11-23T09:01:46.662Z,18.84
2018-11-23T09:02:46.696Z,18.91
2018-11-23T09:03:47.173Z,18.96
2018-11-23T09:04:46.754Z,18.87
2018-11-23T09:05:46.741Z,18.91
2018-11-23T09:06:46.817Z,18.86
2018-11-23T09:07:46.865Z,18.94
2018-11-23T09:08:46.833Z,18.86
2018-11-23T09:10:46.891Z,18.87
2018-11-23T09:11:46.922Z,18.91
2018-11-23T09:12:47.006Z,18.86
2018-11-23T09:13:47.055Z,18.94
2018-11-23T09:14:47.112Z,18.89
2018-11-23T09:15:47.205Z,18.91
2018-11-23T09:16:47.127Z,18.91
2018-11-23T09:17:47.108Z,18.90
2018-11-23T09:18:47.145Z,18.96
2018-11-23T09:19:47.221Z,18.94
2018-11-23T09:20:47.202Z,18.91
2018-11-23T09:21:47.282Z,18.93
2018-11-23T09:22:47.311Z,19.01
2018-11-23T09:23:47.642Z,18.89
2018-11-23T09:24:47.374Z,18.91
2018-11-23T09:25:47.446Z,18.96
2018-11-23T09:26:47.595Z,19.02
2018-11-23T09:27:47.426Z,18.96
2018-11-23T09:28:47.509Z,18.97
2018-11-23T09:29:47.780Z,18.97
2018-11-23T09:30:47.510Z,19.02
2018-11-23T09:31:47.593Z,19.05
2018-11-23T09:32:47.577Z,19.06
2018-11-23T09:33:47.693Z,18.99
2018-11-23T09:34:47.688Z,19.01
2018-11-23T09:35:47.974Z,18.99
2018-11-23T09:36:47.700Z,19.10
2018-11-23T09:37:47.731Z,19.06
2018-11-23T09:38:47.838Z,19.12
2018-11-23T09:39:47.872Z,19.02
2018-11-23T09:40:47.836Z,19.10
2018-11-23T09:41:48.008Z,19.09
2018-11-23T09:42:47.887Z,19.09
2018-11-23T09:43:47.980Z,19.07
2018-11-23T09:44:47.946Z,19.05
2018-11-23T09:45:47.984Z,19.12
2018-11-23T09:46:48.012Z,19.09
2018-11-23T09:47:48.092Z,19.09
2018-11-23T09:48:48.374Z,19.06
2018-11-23T09:49:48.165Z,19.12
2018-11-23T09:50:48.138Z,19.15
2018-11-23T09:51:48.167Z,19.20
2018-11-23T09:52:48.262Z,19.17
2018-11-23T09:54:48.309Z,19.15
2018-11-23T09:55:48.306Z,19.21
2018-11-23T09:56:48.325Z,19.23
2018-11-23T09:57:48.360Z,19.21
2018-11-23T09:58:48.410Z,19.25
2018-11-23T09:59:48.466Z,19.23
2018-11-23T10:00:48.456Z,19.28
2018-11-23T10:01:48.800Z,19.30
2018-11-23T10:02:48.516Z,19.23
2018-11-23T10:03:48.540Z,19.27
2018-11-23T10:04:48.647Z,19.30
2018-11-23T10:05:48.656Z,19.28
2018-11-23T10:06:48.990Z,19.30
2018-11-23T10:07:48.666Z,19.28
2018-11-23T10:08:48.697Z,19.34
2018-11-23T10:09:48.732Z,19.28
2018-11-23T10:10:48.817Z,19.32
2018-11-23T10:11:48.795Z,19.34
2018-11-23T10:12:48.826Z,19.34
2018-11-23T10:13:48.906Z,19.30
2018-11-23T10:14:49.189Z,19.39
2018-11-23T10:15:48.918Z,19.39
2018-11-23T10:16:48.950Z,19.32
2018-11-23T10:17:49.072Z,19.42
2018-11-23T10:18:49.062Z,19.38
2018-11-23T10:19:49.106Z,19.43
2018-11-23T10:20:49.371Z,19.35
2018-11-23T10:21:49.159Z,19.47
2018-11-23T10:22:49.139Z,19.46
2018-11-23T10:23:49.249Z,19.40
2018-11-23T10:24:49.247Z,19.50
2018-11-23T10:25:49.232Z,19.43
2018-11-23T10:26:49.628Z,19.45
2018-11-23T10:27:49.298Z,19.39
2018-11-23T10:28:49.326Z,19.45
2018-11-23T10:29:51.845Z,19.49
2018-11-23T10:30:49.442Z,19.49
2018-11-23T10:31:49.468Z,19.58
2018-11-23T10:32:49.451Z,19.42
2018-11-23T10:33:49.837Z,19.53
2018-11-23T10:34:49.514Z,19.61
2018-11-23T10:35:49.947Z,19.50
2018-11-23T10:36:49.577Z,19.53
2018-11-23T10:37:49.606Z,19.53
2018-11-23T10:38:49.699Z,19.60
2018-11-23T10:39:49.722Z,19.55
2018-11-23T10:40:50.004Z,19.57
2018-11-23T10:41:49.731Z,19.62
2018-11-23T10:42:49.777Z,19.61
2018-11-23T10:43:49.854Z,19.58
2018-11-23T10:44:49.892Z,19.61
2018-11-23T10:45:49.911Z,19.60
2018-11-23T10:46:49.985Z,19.58
2018-11-23T10:47:50.223Z,19.62
2018-11-23T10:48:49.954Z,19.64
2018-11-23T10:49:50.037Z,19.64
2018-11-23T10:50:50.019Z,19.60
2018-11-23T10:51:50.102Z,19.68
2018-11-23T10:52:50.084Z,19.67
2018-11-23T10:53:50.118Z,19.67
2018-11-23T10:54:50.501Z,19.57
2018-11-23T10:55:50.177Z,19.71
2018-11-23T10:56:50.265Z,19.68
2018-11-23T10:57:50.238Z,19.75
2018-11-23T10:58:50.320Z,19.76
2018-11-23T10:59:50.303Z,19.75
2018-11-23T11:00:50.337Z,19.72
2018-11-23T11:01:50.366Z,19.71
2018-11-23T11:02:50.493Z,19.67
2018-11-23T11:03:50.428Z,19.71
2018-11-23T11:04:50.473Z,19.71
2018-11-23T11:05:50.539Z,19.64
2018-11-23T11:06:50.577Z,19.67
2018-11-23T11:07:50.911Z,19.78
2018-11-23T11:08:50.593Z,19.70
2018-11-23T11:09:50.669Z,19.80
2018-11-23T11:10:50.697Z,19.64
2018-11-23T11:11:50.729Z,19.72
2018-11-23T11:12:50.713Z,19.75
2018-11-23T11:13:50.797Z,19.79
2018-11-23T11:14:51.075Z,19.76
2018-11-23T11:15:50.820Z,19.67
2018-11-23T11:16:50.888Z,19.78
2018-11-23T11:17:50.872Z,19.78
2018-11-23T11:18:50.951Z,19.68
2018-11-23T11:19:50.986Z,19.72
2018-11-23T11:20:51.019Z,19.70
2018-11-23T11:21:51.298Z,19.76
2018-11-23T11:22:51.033Z,19.78
2018-11-23T11:23:51.060Z,19.71
2018-11-23T11:24:51.159Z,19.75
2018-11-23T11:25:51.179Z,19.85
2018-11-23T11:26:51.215Z,19.78
2018-11-23T11:27:51.191Z,19.68
2018-11-23T11:28:51.526Z,19.75
2018-11-23T11:29:51.304Z,19.79
2018-11-23T11:30:51.337Z,19.75
2018-11-23T11:31:51.363Z,19.79
2018-11-23T11:32:51.352Z,19.80
2018-11-23T11:33:51.435Z,19.76
2018-11-23T11:34:51.712Z,19.82
2018-11-23T11:35:51.447Z,19.76
2018-11-23T11:36:51.557Z,19.79
2018-11-23T11:37:51.506Z,19.79
2018-11-23T11:38:51.591Z,19.75
2018-11-23T11:39:51.567Z,19.80
2018-11-23T11:40:51.899Z,19.79
2018-11-23T11:41:51.691Z,19.76
2018-11-23T11:42:51.668Z,19.76
2018-11-23T11:43:51.754Z,19.86
2018-11-23T11:44:51.778Z,19.80
2018-11-23T11:45:51.812Z,19.80
2018-11-23T11:46:52.100Z,19.79
2018-11-23T11:47:51.829Z,19.79
2018-11-23T11:48:51.855Z,19.86
2018-11-23T11:49:54.668Z,19.76
2018-11-23T11:50:51.989Z,19.82
2018-11-23T11:51:51.967Z,19.82
2018-11-23T11:52:52.083Z,19.83
2018-11-23T11:53:52.323Z,19.79
2018-11-23T11:54:52.400Z,19.80
2018-11-23T11:55:52.079Z,19.86
2018-11-23T11:56:52.118Z,19.83
2018-11-23T11:57:52.211Z,19.78
2018-11-23T11:58:52.218Z,19.82
2018-11-23T11:59:52.205Z,19.80
2018-11-23T12:00:52.548Z,19.82
2018-11-23T12:01:52.323Z,19.89
2018-11-23T12:02:52.310Z,19.83
2018-11-23T12:03:52.392Z,19.82
2018-11-23T12:04:52.364Z,19.80
2018-11-23T12:05:52.409Z,19.79
2018-11-23T12:06:52.477Z,19.83
2018-11-23T12:07:52.761Z,19.87
2018-11-23T12:08:52.490Z,19.87
2018-11-23T12:09:52.523Z,19.85
2018-11-23T12:10:52.651Z,19.87
2018-11-23T12:11:52.637Z,19.90
2018-11-23T12:12:52.667Z,19.86
2018-11-23T12:13:52.702Z,19.82
2018-11-23T12:14:52.681Z,19.86
2018-11-23T12:16:52.797Z,19.86
2018-11-23T12:17:52.829Z,19.87
2018-11-23T12:18:52.859Z,19.90
2018-11-23T12:19:52.846Z,19.90
2018-11-23T12:20:53.174Z,19.90
2018-11-23T12:21:52.954Z,19.90
2018-11-23T12:22:52.936Z,19.87
2018-11-23T12:23:52.972Z,19.89
2018-11-23T12:24:53.006Z,19.92
2018-11-23T12:25:53.083Z,19.90
2018-11-23T12:26:53.066Z,19.89
2018-11-23T12:27:53.103Z,19.89
2018-11-23T12:28:53.127Z,19.92
2018-11-23T12:29:53.225Z,19.89
2018-11-23T12:30:53.194Z,19.89
2018-11-23T12:31:53.235Z,19.92
2018-11-23T12:32:53.311Z,19.90
2018-11-23T12:33:53.540Z,19.89
2018-11-23T12:34:53.345Z,19.90
2018-11-23T12:35:53.349Z,19.94
2018-11-23T12:36:53.380Z,19.87
2018-11-23T12:37:53.419Z,19.89
2018-11-23T12:38:53.499Z,19.90
2018-11-23T12:39:53.528Z,19.92
2018-11-23T12:40:53.559Z,19.92
2018-11-23T12:41:53.551Z,19.92
2018-11-23T12:42:53.578Z,19.87
2018-11-23T12:43:53.611Z,19.90
2018-11-23T12:44:53.687Z,19.89
2018-11-23T12:45:53.972Z,19.89
2018-11-23T12:46:53.703Z,19.90
2018-11-23T12:47:53.737Z,19.89
2018-11-23T12:48:53.877Z,19.90
2018-11-23T12:49:53.823Z,19.92
2018-11-23T12:50:53.882Z,19.97
2018-11-23T12:51:53.879Z,19.94
2018-11-23T12:52:53.946Z,19.92
2018-11-23T12:53:53.925Z,19.94
2018-11-23T12:54:54.054Z,19.87
2018-11-23T12:55:53.997Z,19.94
2018-11-23T12:56:54.025Z,20.00
2018-11-23T12:57:54.372Z,19.90
2018-11-23T12:58:54.139Z,20.04
2018-11-23T12:59:54.181Z,20.02
2018-11-23T13:00:54.150Z,20.01
2018-11-23T13:01:54.283Z,19.98
2018-11-23T13:02:54.421Z,20.02
2018-11-23T13:03:54.294Z,20.05
2018-11-23T13:04:54.581Z,20.05
2018-11-23T13:05:54.360Z,20.01
2018-11-23T13:06:54.351Z,20.02
2018-11-23T13:07:54.378Z,20.04
2018-11-23T13:08:54.456Z,20.04
2018-11-23T13:09:54.498Z,20.13
2018-11-23T13:10:54.475Z,20.02
2018-11-23T13:11:54.815Z,20.02
2018-11-23T13:12:54.535Z,20.02
2018-11-23T13:13:54.616Z,20.15
2018-11-23T13:14:54.604Z,20.05
2018-11-23T13:15:54.840Z,20.02
2018-11-23T13:16:54.715Z,20.05
2018-11-23T13:17:54.746Z,20.13
2018-11-23T13:18:55.047Z,20.10
2018-11-23T13:19:55.171Z,20.12
2018-11-23T13:20:54.854Z,20.12
2018-11-23T13:21:54.878Z,20.15
2018-11-23T13:22:54.916Z,20.15
2018-11-23T13:23:54.886Z,20.17
2018-11-23T13:24:54.930Z,20.16
2018-11-23T13:25:55.008Z,20.17
2018-11-23T13:26:55.337Z,20.16
2018-11-23T13:27:55.013Z,20.17
2018-11-23T13:28:55.057Z,20.16
2018-11-23T13:29:55.128Z,20.27
2018-11-23T13:30:55.114Z,20.22
2018-11-23T13:31:55.445Z,20.22
2018-11-23T13:32:55.228Z,20.34
2018-11-23T13:33:55.257Z,20.37
2018-11-23T13:34:55.601Z,20.34
2018-11-23T13:35:55.271Z,20.33
2018-11-23T13:36:55.360Z,20.38
2018-11-23T13:37:55.388Z,20.40